UPDATE or REFRESH or RELOAD each time you view race results!

The  Belmont 16ft Sailing Club Ltd  Presents

Results by : TopYacht Software

Race 5   [31/12/2011]   updated on :  2/01/2012  12:41:02 PM

Cadet National Championships 2011/12

Cadet Nationals results Start : 10:58
Place Sail No Boat Name From Elapsd YS Cor d T Skipper CREW Score Fin Tim
1 9698 WILDCARD RGYC 01:02:28 01:02:28 Liam Robinson Gabe Nolan 1.0 12:00:28
2 9562 MELTEMI SBSC 01:05:27 01:05:27 Oliver Burnell Issie De Clerk 2.0 12:03:27
3 9699 SIROCCO SBSC 01:05:54 01:05:54 Charlie Connor Ethan Galbraith 3.0 12:03:54
4 9778 IMPULSE SBSC 01:06:02 01:06:02 Samantha Bailey Hannah Chadwick 4.0 12:04:02
5 9424 SHIMMER SBSC 01:06:21 01:06:21 Sam Abel William Cooper 5.0 12:04:21
6 9280 UNFINISHED BUSINESS SYC 01:06:36 01:06:36 Alice Endersbee Eliza Davies 6.0 12:04:36
7 5653 MANXMAN RYCV 01:07:02 01:07:02 Brodie Roberts Callum Prestedge 7.0 12:05:02
8 9824 ENDLESS SUMMER PLYC 01:07:10 01:07:10 Amy Perin Marni Lydeamore 8.0 12:05:10
9 9529 INSAYNE SYC 01:07:17 01:07:17 Jacob Freeman Jonathan Coman 9.0 12:05:17
10 9744 SHADOW LBSC 01:07:26 01:07:26 Jalina Thompson-Kamb Starr Thompson 10.0 12:05:26
11 9620 BLITZ~EM BSC 01:07:48 01:07:48 Ryan Bogatez Mark Donovan 11.0 12:05:48
12 9611 HOLD ON RYCV 01:07:58 01:07:58 Harrison Croft James Black 12.0 12:05:58
13 4109 SNAKEBITE RGYC 01:08:25 01:08:25 William Townson Claire Townson 13.0 12:06:25
14 9822 GOODNESS GRACIOUS SYC 01:08:37 01:08:37 Grace Endersbee Courtney Perryman 14.0 12:06:37
15 9614 TEMPEST RGYC 01:09:20 01:09:20 Olivia Neilson Joel Lay 15.0 12:07:20
16 9628 IT'S PINK! RGYC 01:09:28 01:09:28 Emily Goodfellow Lachlan Hill 16.0 12:07:28
17 9523 BROTHERS IN ARMS RGYC 01:09:45 01:09:45 Darcy Baranowski Dominic Randall 17.0 12:07:45
18 9531 PHOENIX SBSC 01:09:56 01:09:56 Sam Tiedemann Chloe Abel 18.0 12:07:56
19 9552 EXECUTIONER SBSC 01:10:19 01:10:19 Silas Hamilton Rupert Hamilton 19.0 12:08:19
20 5637 VAMOOSE SYC 01:10:21 01:10:21 Charlie Rae Patrick Rohan 20.0 12:08:21
21 8931 MIDNIGHT MAGIC RGYC 01:10:23 01:10:23 Charlie Friend Ben Townson 21.0 12:08:23
22 9284 MAGOO 2 SYC 01:10:25 01:10:25 Patrick Chipp Jack Furey 22.0 12:08:25
23 9629 WHITE MISSILE RGYC 01:10:26 01:10:26 Nicola Armstrong Emma Kelly 23.0 12:08:26
24 9612 DIRTY HARRY SYC 01:10:51 01:10:51 Angus Rae Zoe Rae 24.0 12:08:51
25 9528 ODYSSEY SYC 01:10:57 01:10:57 Jarad Cavanagh Shae Rohan 25.0 12:08:57
26 4118 SKEETA RGYC 01:11:10 01:11:10 Oliver Friend Jasper Cartwright 26.0 12:09:10
27 5700 SIDEWINDER RYCV 01:11:12 01:11:12 Louis Schofield Max Knell 27.0 12:09:12
28 9281 HIGH CALIBRE PLYC 01:11:16 01:11:16 Lauren Henderson Alissa Kelsey 28.0 12:09:16
29 5494 RUSTLER BSC 01:11:37 01:11:37 Stuart Plenderleith Oscar O'Brien 29.0 12:09:37
30 5509 SAMARAN SYC 01:11:45 01:11:45 Julian Sasson Molly Furey 30.0 12:09:45
31 9559 RESISTANCE RGYC 01:11:48 01:11:48 Riley Mulgrew Oliver Manton 31.0 12:09:48
32 9426 CRAZY BSC 01:12:06 01:12:06 Tristan O'Brien Ella Gray 32.0 12:10:06
33 9621 STEALTH RYCV 01:12:16 01:12:16 Jack Fowler Ryan Croft 33.0 12:10:16
34 9823 LEAP FROG RGYC 01:12:21 01:12:21 Lucy Stephens Alanna Field 34.0 12:10:21
35 5758 WILD THING SBSC 01:12:44 01:12:44 Thomas Cooper Angus Price 35.0 12:10:44
36 9526 HYPER HYPER SYC 01:12:50 01:12:50 Ashley Cavanagh Georgia Wiley 36.0 12:10:50
37 9821 SIBERIAN TIGER RGYC 01:12:52 01:12:52 Sam Stephens Nathan Field 37.0 12:10:52
38 9520 DROP BEARS SBSC 01:12:58 01:12:58 William Connor Callum Ingram 38.0 12:10:58
39 9561 WINNING EDGE SBSC 01:12:59 01:12:59 Toby Burnell Poppy Newton 39.0 12:10:59
40 9777 X-T-SEA RGYC 01:13:07 01:13:07 Billy Goodfellow Joshua Hill 40.0 12:11:07
41 9616 CHECKMATE RGYC 01:13:09 01:13:09 Thomas Alexander Dexter Hare-Zen 41.0 12:11:09
42 5663 REDPATH RGYC 01:13:11 01:13:11 Georgia Randall Matthew Eid 42.0 12:11:11
43 5757 STRIKER SYC 01:13:16 01:13:16 Dylan Rohan Lachlan Coman 43.0 12:11:16
44 9747 LIFE TO THE XTREME PLYC 01:13:18 01:13:18 Georgina Hughes Elsie Kenny 44.0 12:11:18
45 5636 TRUMP CARD BMYC 01:13:47 01:13:47 Kurt Braden Zac Braden 45.0 12:11:47
46 9617 BULLANT RYCV 01:14:21 01:14:21 Michael Johnson Eamon Zappia 46.0 12:12:21
47 5752 IMP RGYC 01:14:32 01:14:32 Aimee Altermatt Ryu Mayumi 47.0 12:12:32
48 5740 RECOIL BSC 01:15:46 01:15:46 James Burley-Jukes Charlotte Rogers 48.0 12:13:46
49 9524 KING GEORGE RYCV 01:15:51 01:15:51 Phillipah Miller Lucy Fowler 49.0 12:13:51
50 9287 CORINTHIAN BSC 01:15:59 01:15:59 Fenella Obrien Toby Burley-Jukes 50.0 12:13:59
51 9626 CLAREBUOYANT RYCV 01:16:05 01:16:05 Clare Olding Patrick De Koster 51.0 12:14:05
52 4881 PIRANHA BSC 01:16:07 01:16:07 Charlotte Gray Mackenzie Gray 52.0 12:14:07
53 6969 BRIDGEWICK FARM RYCV 01:16:28 01:16:28 Lucy Fowler Wynn Schofield 53.0 12:14:28
54 5661 REBEL TWO RGYC 01:16:37 01:16:37 Will Newman Nick Manton 54.0 12:14:37
55 9527 MUSTANG SALLY RYCV 01:16:56 01:16:56 Jacqueline Prestedge Callum Girvin 55.0 12:14:56
56 4690 SAILMAKER RYCV 01:17:25 01:17:25 Ben Wilson Ryan Cambell 56.0 12:15:25
57 5501 WASABI BSC 01:19:10 01:19:10 Luke Bogatez Matthew Ackery 57.0 12:17:10
58 5616 LOQUACIOUS SYC 01:21:05 01:21:05 Brooke Robson Zoe Wiley 58.0 12:19:05
59 5489 DELTA BSC 01:23:43 01:23:43 Vicki Waldock Hannah Miller 59.0 12:21:43
DSQ 9550 JOLT BSC     Sarah Lawman Robert Donovan 61.0